Time;durP1;ratioP1;P1;durP2;ratioP2;P2;SDS_P1;SDS_P2;PMS_P1;PMS_P2;Temp;Humidity;BMP_temperature;BMP_pressure;BME280_temperature;BME280_humidity;BME280_pressure;Samples;Min_cycle;Max_cycle;Signal;HPM_P1;HPM_P2
2022/09/23 00:01:06;;;;;;;78.20;30.67;;;10.80;99.90;;;;;;5042457;28;20168;-84
2022/09/23 00:03:37;;;;;;;77.05;35.22;;;10.90;99.90;;;;;;5041866;28;20165;-84
2022/09/23 00:06:05;;;;;;;76.55;34.63;;;10.80;99.90;;;;;;5041989;28;20146;-84
2022/09/23 00:08:31;;;;;;;79.22;35.65;;;10.80;99.90;;;;;;5041932;28;20235;-84
2022/09/23 00:11:04;;;;;;;76.97;30.98;;;10.80;99.90;;;;;;5041684;28;20637;-84
2022/09/23 00:13:30;;;;;;;82.85;29.90;;;10.90;99.90;;;;;;5042129;28;20216;-84
2022/09/23 00:15:55;;;;;;;76.73;30.20;;;10.90;99.90;;;;;;5028149;28;20195;-84
2022/09/23 00:18:21;;;;;;;77.70;32.40;;;10.90;99.90;;;;;;5045560;28;20192;-84
2022/09/23 00:20:47;;;;;;;78.17;36.60;;;10.80;99.90;;;;;;5046485;28;20520;-84
2022/09/23 00:23:12;;;;;;;80.30;31.00;;;10.90;99.90;;;;;;5028157;28;20161;-84
2022/09/23 00:25:38;;;;;;;76.57;31.63;;;10.90;99.90;;;;;;5027174;28;20173;-84
2022/09/23 00:28:04;;;;;;;75.67;28.67;;;10.90;99.90;;;;;;5044827;28;20245;-84
2022/09/23 00:30:31;;;;;;;76.57;25.40;;;11.00;99.90;;;;;;5044942;28;20203;-84
2022/09/23 00:32:56;;;;;;;76.68;25.90;;;11.00;99.90;;;;;;5027026;28;20172;-84
2022/09/23 00:35:22;;;;;;;80.13;27.43;;;11.00;99.90;;;;;;5045567;28;20193;-84
2022/09/23 00:37:48;;;;;;;75.43;28.50;;;10.90;99.90;;;;;;5045962;28;20187;-84
2022/09/23 00:40:14;;;;;;;80.00;30.50;;;10.90;99.90;;;;;;5027786;28;20415;-84
2022/09/23 00:42:48;;;;;;;74.50;28.73;;;10.80;99.90;;;;;;5045185;28;20248;-84
2022/09/23 00:45:14;;;;;;;75.07;28.52;;;10.90;99.90;;;;;;5027428;28;20236;-84
2022/09/23 00:47:51;;;;;;;82.63;31.75;;;10.90;99.90;;;;;;5044832;28;20188;-84
2022/09/23 00:50:29;;;;;;;74.32;28.58;;;10.80;99.90;;;;;;5045205;28;20187;-84
2022/09/23 00:53:04;;;;;;;79.13;30.52;;;10.80;99.90;;;;;;5027576;28;20181;-84
2022/09/23 00:55:34;;;;;;;76.97;30.73;;;10.70;99.90;;;;;;5045560;28;20195;-84
2022/09/23 00:58:04;;;;;;;76.68;32.03;;;10.70;99.90;;;;;;5044699;28;20200;-84
2022/09/23 01:00:30;;;;;;;77.18;31.17;;;10.70;99.90;;;;;;5027757;28;20161;-84
2022/09/23 01:03:03;;;;;;;78.60;29.00;;;10.70;99.90;;;;;;5044443;28;20172;-84
2022/09/23 01:05:30;;;;;;;80.60;34.00;;;10.60;99.90;;;;;;5026517;28;20173;-84
2022/09/23 01:07:57;;;;;;;78.65;30.20;;;10.60;99.90;;;;;;5043749;28;20184;-84
2022/09/23 01:10:23;;;;;;;78.88;35.65;;;10.60;99.90;;;;;;5043440;28;20196;-84
2022/09/23 01:13:05;;;;;;;76.30;29.58;;;10.60;99.90;;;;;;5026681;28;20220;-84
2022/09/23 01:15:45;;;;;;;80.43;29.05;;;10.70;99.90;;;;;;5043697;28;20200;-84
2022/09/23 01:18:21;;;;;;;80.10;28.58;;;10.60;99.90;;;;;;5044187;28;20185;-84
2022/09/23 01:21:12;;;;;;;79.53;24.10;;;10.60;99.90;;;;;;5041933;28;20157;-84
2022/09/23 01:24:18;;;;;;;80.97;27.95;;;10.60;99.90;;;;;;5043975;28;20173;-84
2022/09/23 01:26:47;;;;;;;77.18;23.55;;;10.60;99.90;;;;;;5043015;28;20188;-84
2022/09/23 01:29:36;;;;;;;74.88;28.70;;;10.60;99.90;;;;;;5026050;28;20704;-84
2022/09/23 01:32:20;;;;;;;80.53;30.15;;;10.50;99.90;;;;;;5043438;28;20149;-84
2022/09/23 01:35:13;;;;;;;79.20;25.73;;;10.50;99.90;;;;;;5043872;28;20163;-84
2022/09/23 01:37:54;;;;;;;74.80;29.73;;;10.40;99.90;;;;;;5020055;28;20689;-84
2022/09/23 01:40:42;;;;;;;75.97;28.67;;;10.30;99.90;;;;;;5042772;28;20162;-84
2022/09/23 01:43:18;;;;;;;74.30;27.88;;;10.30;99.90;;;;;;5043389;28;20164;-84
2022/09/23 01:45:46;;;;;;;76.43;29.25;;;10.20;99.90;;;;;;5043401;28;20145;-84
2022/09/23 01:48:44;;;;;;;77.25;26.38;;;10.30;99.90;;;;;;5025321;28;20661;-84
2022/09/23 01:51:22;;;;;;;74.30;27.40;;;10.20;99.90;;;;;;5041847;28;20549;-84
2022/09/23 01:54:14;;;;;;;73.90;26.15;;;10.20;99.90;;;;;;5024879;28;20620;-84
2022/09/23 01:57:03;;;;;;;79.30;28.27;;;10.10;99.90;;;;;;5043472;28;20203;-84
2022/09/23 01:59:42;;;;;;;76.30;26.73;;;10.10;99.90;;;;;;5042716;28;20157;-84
2022/09/23 02:02:25;;;;;;;76.72;27.23;;;10.10;99.90;;;;;;5042317;28;20203;-84
2022/09/23 02:05:00;;;;;;;78.95;21.50;;;10.10;99.90;;;;;;5024699;28;20161;-84
2022/09/23 02:08:10;;;;;;;74.60;22.23;;;10.00;99.90;;;;;;5025212;28;20238;-84
2022/09/23 02:10:45;;;;;;;73.38;18.88;;;10.00;99.90;;;;;;4985142;28;20230;-84
2022/09/23 02:13:40;;;;;;;70.30;15.05;;;9.90;99.90;;;;;;5000552;28;20150;-84
2022/09/23 02:16:21;;;;;;;72.38;15.23;;;9.90;99.90;;;;;;5022620;28;20609;-84
2022/09/23 02:18:55;;;;;;;72.82;16.60;;;9.90;99.90;;;;;;5025516;28;20188;-84
2022/09/23 02:21:24;;;;;;;70.32;16.65;;;9.90;99.90;;;;;;5043231;28;20157;-85
2022/09/23 02:24:02;;;;;;;68.45;13.27;;;10.00;99.90;;;;;;5025182;28;20256;-84
2022/09/23 02:26:35;;;;;;;70.30;13.73;;;10.00;99.90;;;;;;5043269;28;20176;-85
2022/09/23 02:29:00;;;;;;;69.60;13.85;;;9.90;99.90;;;;;;5042533;28;20195;-84
2022/09/23 02:31:53;;;;;;;72.43;15.70;;;9.90;99.90;;;;;;5043244;28;20165;-84
2022/09/23 02:34:37;;;;;;;68.38;11.70;;;9.90;99.90;;;;;;5042782;28;20177;-84
2022/09/23 02:37:38;;;;;;;67.78;10.77;;;9.90;99.90;;;;;;5043437;28;20199;-84
2022/09/23 02:40:28;;;;;;;68.57;11.10;;;9.90;99.90;;;;;;5043309;28;20176;-84
2022/09/23 02:43:22;;;;;;;68.55;10.85;;;9.90;99.90;;;;;;5024680;28;20533;-84
2022/09/23 02:45:48;;;;;;;71.75;10.75;;;9.90;99.90;;;;;;5024148;28;20173;-85
2022/09/23 02:48:30;;;;;;;68.75;10.13;;;9.90;99.90;;;;;;5025246;28;20204;-84
2022/09/23 02:50:56;;;;;;;69.55;11.05;;;9.90;99.90;;;;;;5042672;28;20153;-84
2022/09/23 02:53:23;;;;;;;73.57;9.57;;;9.90;99.90;;;;;;5042147;28;20185;-84
2022/09/23 02:55:49;;;;;;;69.93;10.75;;;10.00;99.90;;;;;;5043325;28;20193;-84
2022/09/23 02:58:36;;;;;;;72.75;11.70;;;10.00;99.90;;;;;;5042892;28;20192;-85
2022/09/23 03:01:30;;;;;;;68.05;10.90;;;9.90;99.90;;;;;;5042886;28;20164;-84
2022/09/23 03:04:17;;;;;;;72.63;12.63;;;10.00;99.90;;;;;;5021842;28;20181;-85
2022/09/23 03:06:49;;;;;;;73.45;12.52;;;10.00;99.90;;;;;;5024632;28;20199;-84
2022/09/23 03:09:50;;;;;;;68.82;9.85;;;10.00;99.90;;;;;;5042634;28;20183;-84
2022/09/23 03:12:34;;;;;;;70.63;12.90;;;9.90;99.90;;;;;;5042170;28;20193;-85
2022/09/23 03:15:09;;;;;;;67.57;10.95;;;9.90;99.90;;;;;;5024085;28;20648;-84
2022/09/23 03:18:07;;;;;;;70.15;13.52;;;9.90;99.90;;;;;;5042196;28;20196;-84
2022/09/23 03:20:44;;;;;;;69.78;11.10;;;9.90;99.90;;;;;;5042157;28;20154;-85
2022/09/23 03:23:13;;;;;;;75.80;12.40;;;9.80;99.90;;;;;;5042325;28;20154;-85
2022/09/23 03:25:43;;;;;;;71.70;13.65;;;9.90;99.90;;;;;;5042822;28;20172;-84
2022/09/23 03:28:11;;;;;;;71.22;14.93;;;9.90;99.90;;;;;;5025741;28;20189;-84
2022/09/23 03:30:38;;;;;;;69.75;13.63;;;9.90;99.90;;;;;;5043490;28;20228;-85
2022/09/23 03:33:06;;;;;;;69.90;14.30;;;9.90;99.90;;;;;;5025444;28;20172;-85
2022/09/23 03:36:48;;;;;;;70.40;13.30;;;9.80;99.90;;;;;;5024510;28;20200;-85
2022/09/23 03:38:25;;;;;;;72.15;12.80;;;9.80;99.90;;;;;;5041704;28;20185;-85
2022/09/23 03:40:54;;;;;;;70.00;11.85;;;9.80;99.90;;;;;;5041940;28;20157;-85
2022/09/23 03:43:20;;;;;;;68.40;12.82;;;9.80;99.90;;;;;;5042304;28;20650;-85
2022/09/23 03:45:46;;;;;;;72.60;12.90;;;9.70;99.90;;;;;;5042388;28;20174;-85
2022/09/23 03:48:14;;;;;;;68.87;12.07;;;9.70;99.90;;;;;;5042326;28;20446;-85
2022/09/23 03:50:43;;;;;;;76.90;14.10;;;9.70;99.90;;;;;;5027910;28;20427;-85
2022/09/23 03:53:12;;;;;;;69.70;13.80;;;9.70;99.90;;;;;;5045915;28;20181;-85
2022/09/23 03:55:49;;;;;;;70.43;14.40;;;9.70;99.90;;;;;;5046394;28;20186;-85
2022/09/23 03:58:16;;;;;;;69.43;13.55;;;9.70;99.90;;;;;;5045826;28;20238;-85
2022/09/23 04:00:43;;;;;;;72.70;12.80;;;9.70;99.90;;;;;;5028111;28;20252;-85
2022/09/23 04:03:08;;;;;;;69.07;13.88;;;9.70;99.90;;;;;;5027762;28;20165;-85
2022/09/23 04:05:35;;;;;;;68.17;12.67;;;9.60;99.90;;;;;;5045691;28;20245;-85
2022/09/23 04:08:01;;;;;;;69.28;12.75;;;9.60;99.90;;;;;;5045317;28;20450;-85
2022/09/23 04:10:29;;;;;;;72.70;15.30;;;9.50;99.90;;;;;;5045137;28;20158;-85
2022/09/23 04:12:55;;;;;;;69.82;12.82;;;9.40;99.90;;;;;;5045053;28;20248;-85
2022/09/23 04:15:21;;;;;;;75.83;14.03;;;9.40;99.90;;;;;;5045424;28;20192;-85
2022/09/23 04:17:46;;;;;;;71.47;12.97;;;9.40;99.90;;;;;;5045730;28;20235;-85
2022/09/23 04:20:12;;;;;;;68.87;13.30;;;9.40;99.90;;;;;;5045207;28;20200;-85
2022/09/23 04:22:38;;;;;;;67.70;11.70;;;9.40;99.90;;;;;;5045665;28;20157;-85
2022/09/23 04:25:04;;;;;;;70.70;12.70;;;9.40;99.90;;;;;;5045636;28;20168;-85
2022/09/23 04:27:29;;;;;;;70.70;13.68;;;9.30;99.90;;;;;;5044873;28;20185;-85
2022/09/23 04:29:55;;;;;;;70.37;12.80;;;9.30;99.90;;;;;;5026959;28;20240;-85
2022/09/23 04:32:21;;;;;;;69.20;14.90;;;9.30;99.90;;;;;;5044437;28;20222;-85
2022/09/23 04:34:46;;;;;;;73.20;15.40;;;9.20;99.90;;;;;;5043954;28;20169;-85
2022/09/23 04:37:12;;;;;;;71.20;14.43;;;9.20;99.90;;;;;;5045201;28;20228;-85
2022/09/23 04:39:38;;;;;;;71.57;15.30;;;9.20;99.90;;;;;;5027255;28;20167;-85
2022/09/23 04:42:03;;;;;;;70.53;16.17;;;9.20;99.90;;;;;;5045104;28;20189;-85
2022/09/23 04:44:33;;;;;;;69.77;15.37;;;9.20;99.90;;;;;;5026200;28;20583;-85
2022/09/23 04:46:59;;;;;;;70.88;14.38;;;9.30;99.90;;;;;;5026316;28;20184;-85
2022/09/23 04:49:25;;;;;;;71.40;15.67;;;9.20;99.90;;;;;;5044357;28;20165;-85
2022/09/23 04:51:50;;;;;;;71.93;14.65;;;9.30;99.90;;;;;;5113879;22;20173;-82
2022/09/23 04:54:16;;;;;;;70.77;14.13;;;9.30;99.90;;;;;;5036489;28;20189;-82
2022/09/23 04:56:42;;;;;;;70.67;15.77;;;9.30;99.90;;;;;;5019302;28;20615;-82
2022/09/23 04:59:07;;;;;;;69.80;14.70;;;9.20;99.90;;;;;;5036428;28;20276;-82
2022/09/23 05:01:35;;;;;;;70.90;14.87;;;9.20;99.90;;;;;;5019158;28;20215;-82
2022/09/23 05:04:04;;;;;;;74.07;13.20;;;9.10;99.90;;;;;;5036295;28;20571;-82
2022/09/23 05:06:33;;;;;;;71.55;15.27;;;9.10;99.90;;;;;;5036670;28;20165;-82
2022/09/23 05:09:00;;;;;;;70.65;14.50;;;9.10;99.90;;;;;;5018389;28;20228;-82
2022/09/23 05:11:27;;;;;;;72.45;13.35;;;9.10;99.90;;;;;;5036313;28;20165;-82
2022/09/23 05:13:53;;;;;;;73.88;14.43;;;9.10;99.90;;;;;;5036480;28;20199;-82
2022/09/23 05:16:21;;;;;;;71.40;16.07;;;9.20;99.90;;;;;;5036754;28;20587;-82
2022/09/23 05:18:49;;;;;;;74.30;20.05;;;9.20;99.90;;;;;;5036695;28;20431;-82
2022/09/23 05:21:20;;;;;;;70.75;15.98;;;9.20;99.90;;;;;;5018740;28;20179;-82
2022/09/23 05:23:55;;;;;;;76.50;18.27;;;9.20;99.90;;;;;;5036382;28;20235;-82
2022/09/23 05:26:24;;;;;;;72.55;20.25;;;9.20;99.90;;;;;;5036142;28;20218;-82
2022/09/23 05:28:49;;;;;;;72.60;18.35;;;9.20;99.90;;;;;;5018373;28;20243;-82
2022/09/23 05:31:18;;;;;;;73.60;18.23;;;9.20;99.90;;;;;;5036546;28;20617;-82
2022/09/23 05:33:52;;;;;;;76.80;18.45;;;9.30;99.90;;;;;;5018447;28;20705;-82
2022/09/23 05:36:20;;;;;;;71.60;17.83;;;9.20;99.90;;;;;;5035832;28;20181;-82
2022/09/23 05:38:48;;;;;;;80.30;17.60;;;9.30;99.90;;;;;;5035949;28;20173;-82
2022/09/23 05:41:13;;;;;;;71.28;17.55;;;9.30;99.90;;;;;;5035714;28;20244;-82
2022/09/23 05:43:40;;;;;;;73.80;19.60;;;9.30;99.90;;;;;;5018208;28;20204;-82
2022/09/23 05:46:23;;;;;;;78.60;17.55;;;9.30;99.90;;;;;;5018147;28;20173;-82
2022/09/23 05:48:49;;;;;;;74.15;20.17;;;9.40;99.90;;;;;;5035938;28;20242;-82
2022/09/23 05:51:16;;;;;;;73.55;20.48;;;9.40;99.90;;;;;;5035836;28;20671;-82
2022/09/23 05:53:45;;;;;;;74.00;16.77;;;9.40;99.90;;;;;;5035505;28;20529;-82
2022/09/23 05:56:16;;;;;;;72.95;19.80;;;9.40;99.90;;;;;;5036070;28;20537;-82
2022/09/23 05:58:41;;;;;;;76.78;20.08;;;9.50;99.90;;;;;;5035426;28;20192;-83
2022/09/23 06:01:35;;;;;;;74.70;20.50;;;9.50;99.90;;;;;;5017806;28;20161;-82
2022/09/23 06:04:03;;;;;;;72.00;19.20;;;9.50;99.90;;;;;;5034080;28;20491;-82
2022/09/23 06:06:37;;;;;;;72.53;19.17;;;9.40;99.90;;;;;;5035573;28;20177;-82
2022/09/23 06:09:04;;;;;;;71.40;18.17;;;9.50;99.90;;;;;;5017568;28;20193;-81
2022/09/23 06:11:31;;;;;;;72.75;17.98;;;9.50;99.90;;;;;;5034944;28;20227;-82
2022/09/23 06:14:01;;;;;;;72.22;17.60;;;9.60;99.90;;;;;;5017644;28;20173;-82
2022/09/23 06:16:28;;;;;;;74.78;19.50;;;9.60;99.90;;;;;;5034990;28;20193;-82
2022/09/23 06:18:54;;;;;;;73.43;17.88;;;9.70;99.90;;;;;;5017351;28;20620;-82
2022/09/23 06:21:20;;;;;;;74.47;20.77;;;9.70;99.90;;;;;;5017234;28;20203;-82
2022/09/23 06:23:46;;;;;;;74.07;22.07;;;9.70;99.90;;;;;;5035282;28;20430;-82
2022/09/23 06:26:14;;;;;;;78.00;25.23;;;9.80;99.90;;;;;;5035372;28;20176;-82
2022/09/23 06:28:41;;;;;;;74.72;23.10;;;9.80;99.90;;;;;;5017530;28;20437;-82
2022/09/23 06:31:10;;;;;;;72.78;22.45;;;9.80;99.90;;;;;;5034999;28;20667;-83
2022/09/23 06:33:36;;;;;;;73.85;23.13;;;9.90;99.90;;;;;;5035498;28;20557;-82
2022/09/23 06:36:04;;;;;;;75.43;22.40;;;10.00;99.90;;;;;;5035185;28;20204;-82
2022/09/23 06:38:30;;;;;;;76.10;24.52;;;10.00;99.90;;;;;;5035068;28;20495;-82
2022/09/23 06:40:57;;;;;;;77.88;25.17;;;10.00;99.90;;;;;;5034961;28;20153;-82
2022/09/23 06:43:24;;;;;;;74.78;23.75;;;10.10;99.90;;;;;;5034896;28;20165;-82
2022/09/23 06:45:54;;;;;;;75.43;23.95;;;10.20;99.90;;;;;;5035065;28;20165;-82
2022/09/23 06:48:21;;;;;;;79.55;26.08;;;10.20;99.90;;;;;;5017239;28;20219;-82
2022/09/23 06:50:49;;;;;;;77.13;24.65;;;10.30;99.90;;;;;;5017381;28;20177;-82
2022/09/23 06:53:15;;;;;;;76.43;28.05;;;10.40;99.90;;;;;;5034722;28;20191;-82
2022/09/23 06:55:42;;;;;;;74.75;23.23;;;10.50;99.90;;;;;;5017299;28;20283;-82
2022/09/23 06:58:08;;;;;;;81.03;22.65;;;10.70;99.90;;;;;;5034936;28;20228;-83
2022/09/23 07:00:35;;;;;;;75.10;23.10;;;10.70;99.90;;;;;;5017145;28;20165;-82
2022/09/23 07:03:00;;;;;;;74.72;24.33;;;10.80;99.90;;;;;;5017309;28;20704;-82
2022/09/23 07:05:26;;;;;;;76.20;26.37;;;10.90;99.90;;;;;;5034692;28;20161;-82
2022/09/23 07:07:52;;;;;;;76.83;20.83;;;11.00;99.90;;;;;;5035161;28;20415;-82
2022/09/23 07:10:18;;;;;;;76.65;22.55;;;11.10;99.90;;;;;;5016833;28;20494;-82
2022/09/23 07:12:44;;;;;;;81.97;23.70;;;11.10;99.90;;;;;;5034442;28;20172;-82
2022/09/23 07:15:10;;;;;;;76.50;23.80;;;11.20;99.90;;;;;;5034443;28;20168;-83
2022/09/23 07:17:36;;;;;;;79.13;25.67;;;11.30;1.00;;;;;;5034399;28;20201;-82
2022/09/23 07:20:02;;;;;;;74.97;22.13;;;11.40;1.00;;;;;;5017178;28;20169;-83
2022/09/23 07:22:28;;;;;;;71.95;12.88;;;11.50;1.00;;;;;;5017222;28;20408;-83
2022/09/23 07:24:56;;;;;;;69.93;12.23;;;11.70;1.00;;;;;;5037628;28;20172;-83
2022/09/23 07:27:24;;;;;;;71.82;10.98;;;11.80;1.00;;;;;;5038144;28;20185;-82
2022/09/23 07:29:50;;;;;;;77.72;13.40;;;11.90;1.00;;;;;;5021042;28;20207;-82
2022/09/23 07:32:17;;;;;;;73.35;18.90;;;12.00;1.00;;;;;;5038844;28;20629;-82
2022/09/23 07:34:43;;;;;;;83.73;25.03;;;12.00;1.00;;;;;;5038294;28;20506;-82
2022/09/23 07:37:09;;;;;;;74.18;23.60;;;12.20;1.00;;;;;;5038296;28;20509;-82
2022/09/23 07:39:38;;;;;;;75.87;29.63;;;12.30;1.00;;;;;;5038694;28;20173;-83
2022/09/23 07:42:05;;;;;;;75.53;25.30;;;12.40;1.00;;;;;;5038696;28;20899;-82
2022/09/23 07:44:31;;;;;;;79.15;29.02;;;12.50;1.00;;;;;;5038269;28;20173;-82
2022/09/23 07:46:57;;;;;;;78.43;29.08;;;12.50;1.00;;;;;;5038344;28;20184;-82
2022/09/23 07:49:24;;;;;;;81.75;30.55;;;12.50;1.00;;;;;;5020504;28;20234;-82
2022/09/23 07:51:51;;;;;;;81.13;28.15;;;12.50;1.00;;;;;;5037684;28;20177;-82
2022/09/23 07:54:18;;;;;;;76.30;28.58;;;12.60;1.00;;;;;;5037795;28;20180;-82
2022/09/23 07:56:44;;;;;;;80.68;34.80;;;12.70;1.00;;;;;;5019840;28;20197;-82
2022/09/23 07:59:17;;;;;;;81.88;35.28;;;12.70;1.00;;;;;;5037885;28;20185;-82
2022/09/23 08:01:47;;;;;;;76.07;29.47;;;12.80;1.00;;;;;;5019845;28;20189;-82
2022/09/23 08:04:31;;;;;;;74.87;29.43;;;12.90;1.00;;;;;;5020556;28;20422;-82
2022/09/23 08:07:03;;;;;;;74.20;25.30;;;12.90;1.00;;;;;;5038168;28;20434;-82
2022/09/23 08:09:38;;;;;;;72.57;18.13;;;12.90;1.00;;;;;;5037802;28;20422;-82
2022/09/23 08:12:04;;;;;;;77.63;28.53;;;13.00;99.90;;;;;;5037665;28;20392;-82
2022/09/23 08:14:30;;;;;;;79.67;32.07;;;12.90;99.90;;;;;;5037406;28;20458;-82
2022/09/23 08:16:56;;;;;;;74.37;19.03;;;12.90;99.90;;;;;;5037207;28;20834;-81
2022/09/23 08:19:22;;;;;;;71.83;16.63;;;13.10;1.00;;;;;;5037277;28;20458;-82
2022/09/23 08:21:50;;;;;;;73.67;19.47;;;13.30;1.00;;;;;;5020253;28;20645;-82
2022/09/23 08:24:18;;;;;;;71.67;13.80;;;13.40;1.00;;;;;;5037577;28;20162;-82
2022/09/23 08:26:46;;;;;;;72.47;12.97;;;13.50;1.00;;;;;;5037353;28;20495;-82
2022/09/23 08:29:16;;;;;;;73.13;13.47;;;13.60;1.00;;;;;;5019431;28;20432;-80
2022/09/23 08:31:42;;;;;;;73.67;13.10;;;13.70;1.00;;;;;;5037453;28;20388;-81
2022/09/23 08:34:08;;;;;;;71.67;15.60;;;13.80;1.00;;;;;;5036626;28;20439;-81
2022/09/23 08:36:34;;;;;;;72.77;13.23;;;13.80;99.90;;;;;;5037366;28;20676;-82
2022/09/23 08:39:00;;;;;;;73.30;13.47;;;13.80;99.90;;;;;;5036842;28;20434;-81
2022/09/23 08:41:48;;;;;;;72.03;14.87;;;13.90;99.90;;;;;;5037359;28;20412;-82
2022/09/23 08:44:13;;;;;;;72.77;13.40;;;13.90;99.90;;;;;;5037296;28;20200;-82
2022/09/23 08:46:51;;;;;;;71.60;13.10;;;13.90;99.90;;;;;;5037124;28;20396;-81
2022/09/23 08:49:35;;;;;;;70.63;13.30;;;14.00;99.90;;;;;;5019102;28;20189;-82
2022/09/23 08:52:16;;;;;;;69.07;11.50;;;14.20;99.90;;;;;;5037086;28;20430;-82
2022/09/23 08:54:42;;;;;;;70.90;13.93;;;14.30;99.90;;;;;;5019160;28;20411;-82
2022/09/23 08:57:24;;;;;;;73.00;12.67;;;14.40;99.90;;;;;;5036919;28;20567;-81
2022/09/23 08:59:50;;;;;;;69.03;7.97;;;14.60;99.90;;;;;;5036975;28;20146;-82
2022/09/23 09:02:21;;;;;;;72.37;8.60;;;14.70;99.90;;;;;;5036676;28;20404;-82
2022/09/23 09:04:52;;;;;;;68.30;7.90;;;14.70;99.90;;;;;;5019068;28;20457;-82
2022/09/23 09:07:23;;;;;;;77.20;10.23;;;14.70;99.90;;;;;;5018888;28;20436;-82
2022/09/23 09:10:13;;;;;;;73.80;10.27;;;14.90;99.90;;;;;;5036833;28;20788;-82
2022/09/23 09:12:42;;;;;;;71.83;11.47;;;15.00;99.90;;;;;;5018954;28;20491;-82
2022/09/23 09:15:42;;;;;;;68.03;10.63;;;15.10;99.90;;;;;;5036355;28;20442;-82
2022/09/23 09:18:20;;;;;;;71.70;12.23;;;15.20;99.90;;;;;;5036494;28;20792;-82
2022/09/23 09:20:57;;;;;;;72.17;11.63;;;15.40;99.90;;;;;;5036403;28;20906;-82
2022/09/23 09:23:30;;;;;;;71.00;9.63;;;15.60;99.90;;;;;;5018599;28;20903;-82
2022/09/23 09:26:00;;;;;;;69.40;10.53;;;15.60;99.90;;;;;;5018660;28;20451;-82
2022/09/23 09:28:37;;;;;;;68.70;9.77;;;15.50;99.90;;;;;;5018120;28;20423;-82
2022/09/23 09:31:48;;;;;;;70.20;8.10;;;15.60;99.90;;;;;;5018355;28;20443;-81
2022/09/23 09:34:33;;;;;;;69.97;6.97;;;15.70;99.90;;;;;;5017193;28;20847;-82
2022/09/23 09:37:19;;;;;;;67.10;6.20;;;15.70;99.90;;;;;;5036311;28;20639;-82
2022/09/23 09:39:45;;;;;;;69.57;7.00;;;15.80;99.90;;;;;;5035979;28;20397;-82
2022/09/23 09:42:19;;;;;;;67.60;6.77;;;16.00;99.90;;;;;;5018297;28;20827;-82
2022/09/23 09:45:14;;;;;;;68.80;5.80;;;16.10;99.90;;;;;;5018486;28;20193;-82
2022/09/23 09:47:46;;;;;;;70.60;7.20;;;16.10;99.90;;;;;;5034890;28;20450;-82
2022/09/23 09:50:19;;;;;;;68.20;5.73;;;16.00;99.90;;;;;;5018564;28;20912;-82
2022/09/23 09:52:45;;;;;;;67.00;5.87;;;16.10;99.90;;;;;;5035635;28;20432;-82
2022/09/23 09:55:13;;;;;;;67.90;5.80;;;16.20;99.90;;;;;;5035712;28;20406;-82
2022/09/23 09:57:51;;;;;;;71.13;5.90;;;16.10;99.90;;;;;;5035614;28;20199;-82
2022/09/23 10:00:19;;;;;;;67.67;5.63;;;16.20;99.90;;;;;;5035551;28;20376;-82
2022/09/23 10:02:46;;;;;;;67.53;5.30;;;16.40;99.90;;;;;;5017848;28;20896;-82
2022/09/23 10:05:25;;;;;;;69.63;4.70;;;16.60;99.90;;;;;;5035508;28;20406;-82
2022/09/23 10:07:52;;;;;;;67.90;5.30;;;16.90;99.90;;;;;;5035648;28;20425;-82
2022/09/23 10:10:24;;;;;;;68.10;5.60;;;16.90;1.00;;;;;;5035779;28;20404;-82
2022/09/23 10:12:51;;;;;;;72.03;4.70;;;17.30;1.00;;;;;;5035366;28;20747;-82
2022/09/23 10:15:40;;;;;;;71.00;5.80;;;17.50;99.90;;;;;;5035511;28;20383;-82
2022/09/23 10:18:18;;;;;;;66.93;4.90;;;18.00;99.90;;;;;;5030132;28;20520;-82
2022/09/23 10:20:45;;;;;;;69.00;6.13;;;17.90;99.90;;;;;;5035670;28;20377;-82
2022/09/23 10:23:20;;;;;;;70.00;7.60;;;18.10;1.00;;;;;;5035475;28;20393;-82
2022/09/23 10:25:56;;;;;;;72.27;7.23;;;18.30;1.00;;;;;;5018199;28;20416;-82
2022/09/23 10:28:36;;;;;;;68.00;5.97;;;18.30;1.00;;;;;;5017520;28;20431;-82
2022/09/23 10:31:24;;;;;;;69.77;4.37;;;18.10;1.00;;;;;;5017425;28;20404;-82
2022/09/23 10:33:59;;;;;;;68.77;5.67;;;18.30;1.00;;;;;;5017289;28;20408;-82
2022/09/23 10:36:34;;;;;;;70.20;5.10;;;18.40;1.00;;;;;;5035912;28;20446;-82
2022/09/23 10:47:52;;;;;;;67.53;4.23;;;18.80;1.00;;;;;;5034749;28;20936;-82
2022/09/23 10:50:38;;;;;;;67.73;4.40;;;18.70;47.30;;;;;;5017264;28;20416;-81
2022/09/23 10:53:27;;;;;;;65.80;3.83;;;18.60;99.90;;;;;;5099227;22;20981;-83
2022/09/23 10:56:11;;;;;;;66.90;4.90;;;18.40;1.00;;;;;;5050186;28;20478;-83
2022/09/23 10:59:05;;;;;;;68.80;4.63;;;18.60;1.00;;;;;;5054006;28;21005;-83
2022/09/23 11:01:46;;;;;;;68.37;4.27;;;18.80;99.90;;;;;;5031570;28;20412;-83
2022/09/23 11:04:33;;;;;;;68.17;4.10;;;18.70;1.00;;;;;;5048099;28;20388;-83
2022/09/23 11:07:14;;;;;;;66.83;4.17;;;19.00;99.90;;;;;;5047724;28;20423;-83
2022/09/23 11:09:53;;;;;;;68.93;4.60;;;19.10;1.00;;;;;;5047058;28;20386;-83
2022/09/23 11:12:38;;;;;;;67.53;4.60;;;18.90;1.00;;;;;;5029991;28;20404;-83
2022/09/23 11:15:36;;;;;;;67.20;4.60;;;18.60;99.90;;;;;;5046806;28;20384;-82
2022/09/23 11:18:29;;;;;;;67.83;4.80;;;18.80;1.00;;;;;;5047069;28;20456;-83
2022/09/23 11:21:31;;;;;;;69.07;4.00;;;18.80;99.90;;;;;;5046263;28;20373;-83
2022/09/23 11:24:02;;;;;;;67.37;3.93;;;18.80;1.00;;;;;;5029339;28;20487;-83
2022/09/23 11:27:03;;;;;;;71.10;4.40;;;18.90;1.00;;;;;;5043924;28;20755;-83
2022/09/23 11:30:06;;;;;;;68.30;4.30;;;19.00;1.00;;;;;;5045398;28;20450;-83
2022/09/23 11:32:39;;;;;;;69.07;5.73;;;19.00;1.00;;;;;;5046433;28;20391;-83
2022/09/23 11:35:41;;;;;;;67.67;5.10;;;19.10;1.00;;;;;;5045441;28;20383;-83
2022/09/23 11:38:10;;;;;;;69.90;5.60;;;18.80;99.90;;;;;;5045863;28;20431;-83
2022/09/23 11:40:39;;;;;;;68.00;5.70;;;19.00;99.90;;;;;;5041803;28;20409;-83
2022/09/23 11:43:32;;;;;;;66.90;5.43;;;18.90;99.90;;;;;;5041779;28;20507;-83
2022/09/23 11:46:06;;;;;;;68.50;4.50;;;19.10;1.00;;;;;;5023907;28;20388;-83
2022/09/23 11:48:37;;;;;;;69.23;5.23;;;19.40;1.00;;;;;;5041821;28;20431;-83
2022/09/23 11:51:11;;;;;;;67.07;5.63;;;19.60;1.00;;;;;;5042928;28;20388;-83
2022/09/23 11:53:45;;;;;;;69.60;5.10;;;19.60;1.00;;;;;;5041595;28;20422;-83
2022/09/23 11:56:35;;;;;;;70.10;6.40;;;19.50;1.00;;;;;;5024451;28;20453;-83
2022/09/23 11:59:46;;;;;;;66.97;5.70;;;19.30;1.00;;;;;;5041302;28;20500;-83
2022/09/23 12:02:27;;;;;;;75.53;5.90;;;19.20;1.00;;;;;;5041661;28;20404;-83
2022/09/23 12:05:22;;;;;;;75.57;6.40;;;19.50;1.00;;;;;;5042007;28;20871;-83
2022/09/23 12:08:02;;;;;;;75.87;6.33;;;19.80;1.00;;;;;;5040137;28;20515;-83
2022/09/23 12:10:50;;;;;;;70.37;5.57;;;19.60;1.00;;;;;;5042383;28;20377;-83
2022/09/23 12:13:44;;;;;;;66.80;4.40;;;19.60;1.00;;;;;;5045560;28;20456;-83
2022/09/23 12:16:09;;;;;;;66.57;4.17;;;19.70;1.00;;;;;;5044815;28;20524;-83
2022/09/23 12:19:12;;;;;;;67.80;4.67;;;19.70;1.00;;;;;;5045699;28;20466;-83
2022/09/23 12:22:03;;;;;;;70.80;4.50;;;19.50;1.00;;;;;;5005610;28;20184;-83
2022/09/23 12:24:44;;;;;;;70.50;3.90;;;19.70;1.00;;;;;;5045846;28;20832;-83
2022/09/23 12:27:21;;;;;;;66.63;3.93;;;19.70;1.00;;;;;;5045027;28;20744;-83
2022/09/23 12:29:51;;;;;;;66.30;4.30;;;19.80;1.00;;;;;;5026503;28;20416;-83
2022/09/23 12:32:18;;;;;;;68.30;3.43;;;19.70;1.00;;;;;;5043745;28;20427;-83
2022/09/23 12:34:48;;;;;;;69.97;3.93;;;19.70;1.00;;;;;;5044492;28;20405;-83
2022/09/23 12:37:32;;;;;;;66.93;4.30;;;19.60;1.00;;;;;;5043943;28;20459;-83
2022/09/23 12:40:05;;;;;;;69.07;4.00;;;19.60;1.00;;;;;;5044888;28;20389;-83
2022/09/23 12:42:31;;;;;;;67.00;3.60;;;19.70;1.00;;;;;;5046848;28;20407;-83
2022/09/23 12:45:15;;;;;;;66.53;3.50;;;19.90;1.00;;;;;;5050048;28;20497;-83
2022/09/23 12:47:41;;;;;;;67.00;3.87;;;20.00;1.00;;;;;;5032576;28;20435;-83
2022/09/23 12:50:44;;;;;;;66.30;3.53;;;20.20;1.00;;;;;;5049476;28;20489;-83
2022/09/23 12:53:31;;;;;;;67.20;3.83;;;20.30;1.00;;;;;;5048223;28;20182;-83
2022/09/23 12:56:15;;;;;;;66.30;3.20;;;20.40;1.00;;;;;;5048676;28;20484;-83
2022/09/23 12:58:41;;;;;;;67.80;3.43;;;20.40;1.00;;;;;;5049414;28;20417;-83
2022/09/23 13:01:14;;;;;;;67.77;4.00;;;20.40;1.00;;;;;;5049463;28;20409;-83
2022/09/23 13:06:52;;;;;;;68.63;3.33;;;20.70;1.00;;;;;;5049919;28;20436;-83
2022/09/23 13:09:25;;;;;;;67.77;3.70;;;20.70;1.00;;;;;;5049649;28;20527;-83
2022/09/23 13:11:52;;;;;;;67.70;3.50;;;20.70;1.00;;;;;;5049008;28;20475;-83
2022/09/23 13:14:23;;;;;;;66.27;3.80;;;20.50;1.00;;;;;;5049783;28;20413;-83
2022/09/23 13:16:49;;;;;;;67.90;3.50;;;20.30;1.00;;;;;;5049080;28;20472;-83
2022/09/23 13:19:24;;;;;;;66.97;4.10;;;20.20;1.00;;;;;;5030000;28;20443;-83
2022/09/23 13:21:51;;;;;;;67.47;4.50;;;20.10;1.00;;;;;;5047970;28;20409;-83